Kezdőlap
METAR-TAF:

METAR-TAF

Repülőterek :

Baraboo Wisconsin Dells Airport

Baraboo-Wisconsin Dells, Wisconsin, Amerikai Egyesült Államok

földrajzi szélesség: 43-31-19N, földrajzi hosszúság: 089-46-15W, magasság: 298 m

Jelenlegi meteorológiai megfigyelések

A jelentés 28 perccel ezelõtt készült, 02:55 UTC
Nyugat-északnyugati szél 3 kt
Hőmérséklet 13°C
Páratartalom 72%
Légköri nyomás 1020 hPa
Látótávolság: 16.1 km
Szórványos felhőzet 7000 lábon

METAR: KDLL 300255Z AUTO 30003KT 10SM SCT070 13/08 A3012 RMK AO2 T01250083

Idő: 22:23 (03:23 UTC)


TAF: hiányzik

Meteorológiai megfigyelések és előrejelzések több, mint 4000 repülőtéren (METAR és TAF jelentéseket).

A térképen piros és sárga pontok jelzik az elérhető meteorológiai állomásokat.

Mozgassa az egeret a pont fölött, hogy megjelenjen az állomás neve.

Azután kattintson az időjárási megfigyelések és előrejelzések megtekintéséhez.

A térkép megváltoztatása: kattintson a fekete keresztel jelölt zöld gombra ráközelítéshez, a vonallal jelölt zöld gombra távolításhoz, vagy a zöld nyilakra a szomszédos térképek eléréséhez.


METAR-TAF: